Startpagina
METAR-TAF:

METAR-TAF

Vliegvelden :

Luchthaven Diori Hamani

Niamey, Niger

breedte: 13-29N, lengte: 002-10E, hoogte: 223 m

Actueel weer

Dit bericht is 58 minuten geleden gemaakt, om 10:00 UTC
Wind 3 kt uit variabele richting
Temperatuur 31°C
Vochtigheid 55%
Druk 1013 hPa
Zicht 10 km of meer
geen wolken onder 1500 m en geen cumulonimbus

METAR: DRRN 231000Z VRB03KT CAVOK 31/21 Q1013 NOSIG

Tijdstip: 11:58 (10:58 UTC)

Verwachting

Dit bericht is 5 uur en het 58 minuten geleden gemaakt, om 05:00 UTC
Verwachting geldig van 23 om 06 UTC tot 24 om 12 UTC
Wind 8 kt uit het westzuidwesten
Zicht 10 km of meer
geen wolken onder 1500 m en geen cumulonimbus
Kans 40% :
Tijdelijke
van 23 om 14 UTC tot 23 om 18 UTC
Weinig wolken op 3000 ft
Weinig wolken op 3300 ft, Cumulonimbus.
onweer

TAF: DRRN 230500Z 2306/2412 24008KT CAVOK PROB40 TEMPO 2314/2318 TS FEW030 FEW033CB

Waarnemingen en weersverwachtingen van meer dan 4000 vliegvelden (METAR en TAF).

De beschikbare stations zijn de gele en rode punten op de kaart.

Ga met uw muis naar het station om de naam te zien.

Klik dan om waarnemingen en weersverwachtingen te zien.

kaart wijzigen: klik op de groene knoppen met een zwart kruis om in te zoomen, op de groene knop met een streepje om uit te zoomen of op de groene pijlen voor aangrenzende kaarten.


METAR-TAF: